Liskeard, United Kingdom
Current Conditions -  °F | °C
As of 4:20 PM on Tuesday 21 Oct 2014 (Local Time) from EGHQ Reporting Station
Scattered Clouds Scattered Clouds  
Wind Chill: 54°   Ceiling: Unl
Heat Index: 54°   Visibility: 6mi
Dew Point: 41°   Wind: 30mph
Humidity: 62%   Direction: 310°NW
Pressure: 30.12"   Gusts: NA
Location:  50.45°N, 4.47°W
Report Text: EGHQ 211520Z 31026KT 9999 SCT033 12/05 Q1020
Loading
Personal Weather Stations






























Interactive Weather Map
Tropical Storm Tracking
New forecast layout! Learn more

10-Day Weather Forecast

Advertisements
Track Severe Weather on mobile